sensor_id;sensor_type;location;lat;lon;timestamp;temperature;humidity
10300;DHT22;5195;48.562;9.192;2023-07-09T00:01:58;25.70;42.30
10300;DHT22;5195;48.562;9.192;2023-07-09T00:04:23;25.80;42.00
10300;DHT22;5195;48.562;9.192;2023-07-09T00:06:49;25.70;42.10
10300;DHT22;5195;48.562;9.192;2023-07-09T00:09:20;25.90;42.10
10300;DHT22;5195;48.562;9.192;2023-07-09T00:11:45;25.90;41.90
10300;DHT22;5195;48.562;9.192;2023-07-09T00:14:11;26.00;42.70
10300;DHT22;5195;48.562;9.192;2023-07-09T00:16:37;26.60;41.20
10300;DHT22;5195;48.562;9.192;2023-07-09T00:19:03;26.50;41.10
10300;DHT22;5195;48.562;9.192;2023-07-09T00:21:27;26.40;41.20
10300;DHT22;5195;48.562;9.192;2023-07-09T00:23:53;26.30;41.50
10300;DHT22;5195;48.562;9.192;2023-07-09T00:26:26;26.50;41.40
10300;DHT22;5195;48.562;9.192;2023-07-09T00:28:44;26.60;41.30
10300;DHT22;5195;48.562;9.192;2023-07-09T00:31:14;26.70;41.30
10300;DHT22;5195;48.562;9.192;2023-07-09T00:33:41;26.40;41.50
10300;DHT22;5195;48.562;9.192;2023-07-09T00:36:20;26.30;41.80
10300;DHT22;5195;48.562;9.192;2023-07-09T00:38:42;26.10;42.10
10300;DHT22;5195;48.562;9.192;2023-07-09T00:41:12;26.10;42.80
10300;DHT22;5195;48.562;9.192;2023-07-09T00:43:35;25.60;43.30
10300;DHT22;5195;48.562;9.192;2023-07-09T00:51:21;25.40;44.60
10300;DHT22;5195;48.562;9.192;2023-07-09T00:53:46;25.60;44.20
10300;DHT22;5195;48.562;9.192;2023-07-09T00:56:13;25.90;43.90
10300;DHT22;5195;48.562;9.192;2023-07-09T00:58:37;25.90;43.60
10300;DHT22;5195;48.562;9.192;2023-07-09T01:01:04;26.00;43.10
10300;DHT22;5195;48.562;9.192;2023-07-09T01:03:32;26.00;42.80
10300;DHT22;5195;48.562;9.192;2023-07-09T01:05:55;26.20;42.60
10300;DHT22;5195;48.562;9.192;2023-07-09T01:08:20;26.10;42.50
10300;DHT22;5195;48.562;9.192;2023-07-09T01:10:46;25.80;42.80
10300;DHT22;5195;48.562;9.192;2023-07-09T01:13:11;25.40;43.30
10300;DHT22;5195;48.562;9.192;2023-07-09T01:15:37;25.40;43.90
10300;DHT22;5195;48.562;9.192;2023-07-09T01:18:03;25.60;43.90
10300;DHT22;5195;48.562;9.192;2023-07-09T01:20:28;25.40;43.70
10300;DHT22;5195;48.562;9.192;2023-07-09T01:22:54;25.40;44.00
10300;DHT22;5195;48.562;9.192;2023-07-09T01:25:19;25.60;43.80
10300;DHT22;5195;48.562;9.192;2023-07-09T01:27:45;25.80;43.60
10300;DHT22;5195;48.562;9.192;2023-07-09T01:30:12;25.50;43.60
10300;DHT22;5195;48.562;9.192;2023-07-09T01:32:37;25.20;44.00
10300;DHT22;5195;48.562;9.192;2023-07-09T01:35:04;24.80;44.20
10300;DHT22;5195;48.562;9.192;2023-07-09T01:37:29;25.00;44.60
10300;DHT22;5195;48.562;9.192;2023-07-09T01:39:56;24.90;44.50
10300;DHT22;5195;48.562;9.192;2023-07-09T01:42:22;25.00;44.90
10300;DHT22;5195;48.562;9.192;2023-07-09T01:44:47;24.90;44.70
10300;DHT22;5195;48.562;9.192;2023-07-09T01:47:12;24.60;44.80
10300;DHT22;5195;48.562;9.192;2023-07-09T01:49:38;24.70;44.90
10300;DHT22;5195;48.562;9.192;2023-07-09T01:52:03;24.70;44.80
10300;DHT22;5195;48.562;9.192;2023-07-09T01:54:30;25.00;44.70
10300;DHT22;5195;48.562;9.192;2023-07-09T01:57:11;25.20;44.30
10300;DHT22;5195;48.562;9.192;2023-07-09T01:59:22;25.20;44.30
10300;DHT22;5195;48.562;9.192;2023-07-09T02:01:48;25.50;44.10
10300;DHT22;5195;48.562;9.192;2023-07-09T02:04:13;25.50;44.10
10300;DHT22;5195;48.562;9.192;2023-07-09T02:06:39;25.20;44.20
10300;DHT22;5195;48.562;9.192;2023-07-09T02:09:05;25.10;44.60
10300;DHT22;5195;48.562;9.192;2023-07-09T02:11:30;24.90;44.70
10300;DHT22;5195;48.562;9.192;2023-07-09T02:13:56;24.60;45.20
10300;DHT22;5195;48.562;9.192;2023-07-09T02:16:22;24.90;45.30
10300;DHT22;5195;48.562;9.192;2023-07-09T02:18:48;24.90;45.20
10300;DHT22;5195;48.562;9.192;2023-07-09T02:21:13;25.10;44.90
10300;DHT22;5195;48.562;9.192;2023-07-09T02:23:40;25.20;44.70
10300;DHT22;5195;48.562;9.192;2023-07-09T02:26:07;25.00;44.90
10300;DHT22;5195;48.562;9.192;2023-07-09T02:28:33;25.00;45.20
10300;DHT22;5195;48.562;9.192;2023-07-09T02:30:58;24.70;45.20
10300;DHT22;5195;48.562;9.192;2023-07-09T02:33:24;24.40;45.50
10300;DHT22;5195;48.562;9.192;2023-07-09T02:35:49;24.50;46.00
10300;DHT22;5195;48.562;9.192;2023-07-09T02:38:15;24.30;45.80
10300;DHT22;5195;48.562;9.192;2023-07-09T02:40:40;24.50;46.10
10300;DHT22;5195;48.562;9.192;2023-07-09T02:43:06;24.70;45.80
10300;DHT22;5195;48.562;9.192;2023-07-09T02:45:33;24.50;45.60
10300;DHT22;5195;48.562;9.192;2023-07-09T02:47:58;24.60;45.80
10300;DHT22;5195;48.562;9.192;2023-07-09T02:50:24;24.40;45.80
10300;DHT22;5195;48.562;9.192;2023-07-09T02:52:49;24.40;46.00
10300;DHT22;5195;48.562;9.192;2023-07-09T02:55:15;24.30;46.00
10300;DHT22;5195;48.562;9.192;2023-07-09T02:57:40;24.30;46.20
10300;DHT22;5195;48.562;9.192;2023-07-09T03:00:06;24.20;46.20
10300;DHT22;5195;48.562;9.192;2023-07-09T03:02:32;23.90;46.50
10300;DHT22;5195;48.562;9.192;2023-07-09T03:04:57;23.60;46.70
10300;DHT22;5195;48.562;9.192;2023-07-09T03:07:23;23.50;47.10
10300;DHT22;5195;48.562;9.192;2023-07-09T03:09:48;23.60;47.40
10300;DHT22;5195;48.562;9.192;2023-07-09T03:12:15;23.40;47.30
10300;DHT22;5195;48.562;9.192;2023-07-09T03:14:41;23.40;47.30
10300;DHT22;5195;48.562;9.192;2023-07-09T03:17:08;23.50;47.60
10300;DHT22;5195;48.562;9.192;2023-07-09T03:19:34;23.90;47.20
10300;DHT22;5195;48.562;9.192;2023-07-09T03:21:59;24.10;46.70
10300;DHT22;5195;48.562;9.192;2023-07-09T03:24:25;24.30;46.30
10300;DHT22;5195;48.562;9.192;2023-07-09T03:26:51;24.50;46.10
10300;DHT22;5195;48.562;9.192;2023-07-09T03:29:17;24.20;46.20
10300;DHT22;5195;48.562;9.192;2023-07-09T03:31:42;24.20;46.40
10300;DHT22;5195;48.562;9.192;2023-07-09T03:34:08;24.30;46.20
10300;DHT22;5195;48.562;9.192;2023-07-09T03:36:33;24.50;46.00
10300;DHT22;5195;48.562;9.192;2023-07-09T03:38:59;24.20;46.10
10300;DHT22;5195;48.562;9.192;2023-07-09T03:41:25;23.80;46.60
10300;DHT22;5195;48.562;9.192;2023-07-09T03:43:50;23.50;47.00
10300;DHT22;5195;48.562;9.192;2023-07-09T03:46:16;23.70;47.60
10300;DHT22;5195;48.562;9.192;2023-07-09T03:48:41;23.50;47.30
10300;DHT22;5195;48.562;9.192;2023-07-09T03:51:07;23.50;48.00
10300;DHT22;5195;48.562;9.192;2023-07-09T03:53:33;23.40;47.90
10300;DHT22;5195;48.562;9.192;2023-07-09T03:55:59;23.40;47.80
10300;DHT22;5195;48.562;9.192;2023-07-09T03:58:24;23.20;48.00
10300;DHT22;5195;48.562;9.192;2023-07-09T04:00:51;23.70;48.50
10300;DHT22;5195;48.562;9.192;2023-07-09T04:03:16;23.70;47.90
10300;DHT22;5195;48.562;9.192;2023-07-09T04:05:42;24.00;47.50
10300;DHT22;5195;48.562;9.192;2023-07-09T04:08:07;23.80;47.40
10300;DHT22;5195;48.562;9.192;2023-07-09T04:10:34;23.90;47.40
10300;DHT22;5195;48.562;9.192;2023-07-09T04:13:00;24.00;47.10
10300;DHT22;5195;48.562;9.192;2023-07-09T04:15:25;23.90;47.30
10300;DHT22;5195;48.562;9.192;2023-07-09T04:17:52;23.50;47.60
10300;DHT22;5195;48.562;9.192;2023-07-09T04:20:18;23.30;48.10
10300;DHT22;5195;48.562;9.192;2023-07-09T04:22:44;23.10;48.30
10300;DHT22;5195;48.562;9.192;2023-07-09T04:25:09;23.00;48.50
10300;DHT22;5195;48.562;9.192;2023-07-09T04:27:35;22.90;49.50
10300;DHT22;5195;48.562;9.192;2023-07-09T04:30:01;22.80;49.00
10300;DHT22;5195;48.562;9.192;2023-07-09T04:32:27;22.80;48.90
10300;DHT22;5195;48.562;9.192;2023-07-09T04:34:52;22.70;49.00
10300;DHT22;5195;48.562;9.192;2023-07-09T04:37:18;22.70;49.10
10300;DHT22;5195;48.562;9.192;2023-07-09T04:39:45;23.00;49.40
10300;DHT22;5195;48.562;9.192;2023-07-09T04:42:11;23.50;48.70
10300;DHT22;5195;48.562;9.192;2023-07-09T04:44:36;23.50;48.40
10300;DHT22;5195;48.562;9.192;2023-07-09T04:47:02;23.60;48.20
10300;DHT22;5195;48.562;9.192;2023-07-09T04:49:28;23.50;48.10
10300;DHT22;5195;48.562;9.192;2023-07-09T04:51:54;23.20;48.70
10300;DHT22;5195;48.562;9.192;2023-07-09T04:54:20;23.20;48.70
10300;DHT22;5195;48.562;9.192;2023-07-09T04:56:45;23.10;48.90
10300;DHT22;5195;48.562;9.192;2023-07-09T04:59:11;23.30;49.00
10300;DHT22;5195;48.562;9.192;2023-07-09T05:01:47;23.80;48.50
10300;DHT22;5195;48.562;9.192;2023-07-09T05:04:31;23.80;48.30
10300;DHT22;5195;48.562;9.192;2023-07-09T05:06:58;23.50;48.40
10300;DHT22;5195;48.562;9.192;2023-07-09T05:09:24;23.40;48.70
10300;DHT22;5195;48.562;9.192;2023-07-09T05:11:49;23.30;49.00
10300;DHT22;5195;48.562;9.192;2023-07-09T05:14:14;23.20;49.10
10300;DHT22;5195;48.562;9.192;2023-07-09T05:16:40;23.60;49.20
10300;DHT22;5195;48.562;9.192;2023-07-09T05:19:07;24.00;48.50
10300;DHT22;5195;48.562;9.192;2023-07-09T05:21:31;24.00;48.20
10300;DHT22;5195;48.562;9.192;2023-07-09T05:23:57;24.20;48.90
10300;DHT22;5195;48.562;9.192;2023-07-09T05:26:22;24.50;47.80
10300;DHT22;5195;48.562;9.192;2023-07-09T05:28:48;24.40;47.80
10300;DHT22;5195;48.562;9.192;2023-07-09T05:31:14;24.30;47.90
10300;DHT22;5195;48.562;9.192;2023-07-09T05:33:40;24.30;47.90
10300;DHT22;5195;48.562;9.192;2023-07-09T05:36:05;24.40;48.20
10300;DHT22;5195;48.562;9.192;2023-07-09T05:38:31;24.60;48.00
10300;DHT22;5195;48.562;9.192;2023-07-09T05:41:00;24.50;48.00
10300;DHT22;5195;48.562;9.192;2023-07-09T05:43:25;24.60;47.80
10300;DHT22;5195;48.562;9.192;2023-07-09T05:45:51;24.80;47.30
10300;DHT22;5195;48.562;9.192;2023-07-09T05:48:16;24.70;47.30
10300;DHT22;5195;48.562;9.192;2023-07-09T05:50:43;25.10;46.90
10300;DHT22;5195;48.562;9.192;2023-07-09T05:53:08;25.10;46.90
10300;DHT22;5195;48.562;9.192;2023-07-09T05:55:34;25.00;47.00
10300;DHT22;5195;48.562;9.192;2023-07-09T05:57:59;25.10;47.20
10300;DHT22;5195;48.562;9.192;2023-07-09T06:00:25;25.00;47.10
10300;DHT22;5195;48.562;9.192;2023-07-09T06:02:50;24.80;47.30
10300;DHT22;5195;48.562;9.192;2023-07-09T06:05:16;25.00;47.20
10300;DHT22;5195;48.562;9.192;2023-07-09T06:07:42;25.80;45.80
10300;DHT22;5195;48.562;9.192;2023-07-09T06:10:08;25.80;45.70
10300;DHT22;5195;48.562;9.192;2023-07-09T06:12:37;25.80;45.70
10300;DHT22;5195;48.562;9.192;2023-07-09T06:15:03;25.60;46.00
10300;DHT22;5195;48.562;9.192;2023-07-09T06:17:28;25.90;45.60
10300;DHT22;5195;48.562;9.192;2023-07-09T06:19:54;26.20;45.80
10300;DHT22;5195;48.562;9.192;2023-07-09T06:22:20;26.80;45.80
10300;DHT22;5195;48.562;9.192;2023-07-09T06:24:47;26.80;45.80
10300;DHT22;5195;48.562;9.192;2023-07-09T06:27:12;27.20;45.30
10300;DHT22;5195;48.562;9.192;2023-07-09T06:29:38;28.00;42.40
10300;DHT22;5195;48.562;9.192;2023-07-09T06:32:04;29.00;40.80
10300;DHT22;5195;48.562;9.192;2023-07-09T06:34:29;29.90;39.20
10300;DHT22;5195;48.562;9.192;2023-07-09T06:36:55;30.20;39.50
10300;DHT22;5195;48.562;9.192;2023-07-09T06:39:20;30.80;37.60
10300;DHT22;5195;48.562;9.192;2023-07-09T06:41:48;31.10;38.70
10300;DHT22;5195;48.562;9.192;2023-07-09T06:44:13;31.10;38.20
10300;DHT22;5195;48.562;9.192;2023-07-09T06:46:39;31.60;36.30
10300;DHT22;5195;48.562;9.192;2023-07-09T06:49:04;32.20;35.40
10300;DHT22;5195;48.562;9.192;2023-07-09T06:51:33;32.40;36.00
10300;DHT22;5195;48.562;9.192;2023-07-09T06:54:00;32.70;34.80
10300;DHT22;5195;48.562;9.192;2023-07-09T06:56:25;32.70;34.80
10300;DHT22;5195;48.562;9.192;2023-07-09T06:58:52;32.90;35.10
10300;DHT22;5195;48.562;9.192;2023-07-09T07:01:17;32.90;35.40
10300;DHT22;5195;48.562;9.192;2023-07-09T07:03:43;33.30;33.80
10300;DHT22;5195;48.562;9.192;2023-07-09T07:06:09;34.30;32.40
10300;DHT22;5195;48.562;9.192;2023-07-09T07:08:35;34.30;32.40
10300;DHT22;5195;48.562;9.192;2023-07-09T07:11:02;34.70;31.80
10300;DHT22;5195;48.562;9.192;2023-07-09T07:13:29;34.80;31.20
10300;DHT22;5195;48.562;9.192;2023-07-09T07:15:54;34.60;31.80
10300;DHT22;5195;48.562;9.192;2023-07-09T07:18:21;34.40;32.30
10300;DHT22;5195;48.562;9.192;2023-07-09T07:20:47;34.60;32.60
10300;DHT22;5195;48.562;9.192;2023-07-09T07:23:13;34.60;31.90
10300;DHT22;5195;48.562;9.192;2023-07-09T07:25:39;34.40;32.50
10300;DHT22;5195;48.562;9.192;2023-07-09T07:28:05;34.40;32.50
10300;DHT22;5195;48.562;9.192;2023-07-09T07:30:36;34.60;31.30
10300;DHT22;5195;48.562;9.192;2023-07-09T07:33:01;34.70;31.40
10300;DHT22;5195;48.562;9.192;2023-07-09T07:35:27;34.50;31.20
10300;DHT22;5195;48.562;9.192;2023-07-09T07:37:53;34.70;30.60
10300;DHT22;5195;48.562;9.192;2023-07-09T07:40:19;34.70;30.60
10300;DHT22;5195;48.562;9.192;2023-07-09T07:42:45;34.40;30.70
10300;DHT22;5195;48.562;9.192;2023-07-09T07:45:12;34.50;31.00
10300;DHT22;5195;48.562;9.192;2023-07-09T07:47:37;34.80;30.50
10300;DHT22;5195;48.562;9.192;2023-07-09T07:50:03;35.00;31.00
10300;DHT22;5195;48.562;9.192;2023-07-09T07:52:29;34.90;30.90
10300;DHT22;5195;48.562;9.192;2023-07-09T07:54:55;35.20;30.00
10300;DHT22;5195;48.562;9.192;2023-07-09T07:57:21;35.20;30.00
10300;DHT22;5195;48.562;9.192;2023-07-09T07:59:47;35.20;30.20
10300;DHT22;5195;48.562;9.192;2023-07-09T08:02:13;35.20;29.70
10300;DHT22;5195;48.562;9.192;2023-07-09T08:04:40;34.90;30.30
10300;DHT22;5195;48.562;9.192;2023-07-09T08:07:07;34.90;30.20
10300;DHT22;5195;48.562;9.192;2023-07-09T08:09:33;34.70;30.50
10300;DHT22;5195;48.562;9.192;2023-07-09T08:11:58;34.90;30.60
10300;DHT22;5195;48.562;9.192;2023-07-09T08:14:25;35.00;30.50
10300;DHT22;5195;48.562;9.192;2023-07-09T08:16:51;35.10;30.00
10300;DHT22;5195;48.562;9.192;2023-07-09T08:19:18;35.10;29.90
10300;DHT22;5195;48.562;9.192;2023-07-09T08:21:43;35.90;30.00
10300;DHT22;5195;48.562;9.192;2023-07-09T08:24:09;35.90;29.40
10300;DHT22;5195;48.562;9.192;2023-07-09T08:26:34;36.20;29.20
10300;DHT22;5195;48.562;9.192;2023-07-09T08:29:00;36.20;29.20
10300;DHT22;5195;48.562;9.192;2023-07-09T08:31:25;36.10;29.60
10300;DHT22;5195;48.562;9.192;2023-07-09T08:33:51;36.20;29.50
10300;DHT22;5195;48.562;9.192;2023-07-09T08:36:16;36.40;29.80
10300;DHT22;5195;48.562;9.192;2023-07-09T08:38:42;36.60;29.30
10300;DHT22;5195;48.562;9.192;2023-07-09T08:41:36;36.60;29.30
10300;DHT22;5195;48.562;9.192;2023-07-09T08:43:59;36.60;29.40
10300;DHT22;5195;48.562;9.192;2023-07-09T08:49:18;37.00;28.50
10300;DHT22;5195;48.562;9.192;2023-07-09T08:51:37;37.00;28.50
10300;DHT22;5195;48.562;9.192;2023-07-09T08:54:02;37.10;28.10
10300;DHT22;5195;48.562;9.192;2023-07-09T08:56:29;36.90;28.00
10300;DHT22;5195;48.562;9.192;2023-07-09T08:58:54;36.80;28.00
10300;DHT22;5195;48.562;9.192;2023-07-09T09:01:26;36.70;28.10
10300;DHT22;5195;48.562;9.192;2023-07-09T09:03:57;37.10;25.50
10300;DHT22;5195;48.562;9.192;2023-07-09T09:06:21;37.10;25.50
10300;DHT22;5195;48.562;9.192;2023-07-09T09:11:45;37.50;26.10
10300;DHT22;5195;48.562;9.192;2023-07-09T09:16:51;38.00;25.40
10300;DHT22;5195;48.562;9.192;2023-07-09T09:19:22;38.20;25.30
10300;DHT22;5195;48.562;9.192;2023-07-09T09:21:46;37.90;25.40
10300;DHT22;5195;48.562;9.192;2023-07-09T09:24:26;37.90;25.30
10300;DHT22;5195;48.562;9.192;2023-07-09T09:26:47;37.80;25.10
10300;DHT22;5195;48.562;9.192;2023-07-09T09:29:14;37.70;25.20
10300;DHT22;5195;48.562;9.192;2023-07-09T09:31:39;37.60;25.10
10300;DHT22;5195;48.562;9.192;2023-07-09T09:34:06;37.90;24.70
10300;DHT22;5195;48.562;9.192;2023-07-09T09:36:31;38.30;24.60
10300;DHT22;5195;48.562;9.192;2023-07-09T09:39:00;38.40;24.80
10300;DHT22;5195;48.562;9.192;2023-07-09T09:41:30;38.30;24.50
10300;DHT22;5195;48.562;9.192;2023-07-09T09:43:53;38.10;24.30
10300;DHT22;5195;48.562;9.192;2023-07-09T09:46:20;38.70;24.00
10300;DHT22;5195;48.562;9.192;2023-07-09T09:48:44;38.70;23.90
10300;DHT22;5195;48.562;9.192;2023-07-09T09:51:09;39.10;24.00
10300;DHT22;5195;48.562;9.192;2023-07-09T09:53:38;39.00;24.20
10300;DHT22;5195;48.562;9.192;2023-07-09T09:56:04;39.00;23.60
10300;DHT22;5195;48.562;9.192;2023-07-09T09:58:29;38.90;23.70
10300;DHT22;5195;48.562;9.192;2023-07-09T10:00:55;39.00;23.30
10300;DHT22;5195;48.562;9.192;2023-07-09T10:03:20;39.20;23.00
10300;DHT22;5195;48.562;9.192;2023-07-09T10:05:55;39.10;23.20
10300;DHT22;5195;48.562;9.192;2023-07-09T10:08:29;38.80;23.40
10300;DHT22;5195;48.562;9.192;2023-07-09T10:10:50;38.90;23.80
10300;DHT22;5195;48.562;9.192;2023-07-09T10:13:26;39.00;23.90
10300;DHT22;5195;48.562;9.192;2023-07-09T10:16:07;38.80;24.10
10300;DHT22;5195;48.562;9.192;2023-07-09T10:21:18;39.00;23.40
10300;DHT22;5195;48.562;9.192;2023-07-09T10:24:11;39.00;23.60
10300;DHT22;5195;48.562;9.192;2023-07-09T10:29:42;39.40;23.80
10300;DHT22;5195;48.562;9.192;2023-07-09T10:32:27;39.40;23.90
10300;DHT22;5195;48.562;9.192;2023-07-09T10:34:55;39.50;24.20
10300;DHT22;5195;48.562;9.192;2023-07-09T10:37:27;39.60;23.90
10300;DHT22;5195;48.562;9.192;2023-07-09T10:39:57;39.50;23.70
10300;DHT22;5195;48.562;9.192;2023-07-09T10:42:22;39.40;23.70
10300;DHT22;5195;48.562;9.192;2023-07-09T10:44:48;39.50;23.60
10300;DHT22;5195;48.562;9.192;2023-07-09T10:47:16;39.50;23.60
10300;DHT22;5195;48.562;9.192;2023-07-09T10:49:40;39.40;24.20
10300;DHT22;5195;48.562;9.192;2023-07-09T10:52:13;39.40;23.50
10300;DHT22;5195;48.562;9.192;2023-07-09T10:57:42;39.20;24.10
10300;DHT22;5195;48.562;9.192;2023-07-09T11:00:05;39.50;24.90
10300;DHT22;5195;48.562;9.192;2023-07-09T11:02:34;39.50;24.30
10300;DHT22;5195;48.562;9.192;2023-07-09T11:05:00;39.60;24.20
10300;DHT22;5195;48.562;9.192;2023-07-09T11:09:57;39.40;23.70
10300;DHT22;5195;48.562;9.192;2023-07-09T11:12:36;39.20;23.70
10300;DHT22;5195;48.562;9.192;2023-07-09T11:15:03;39.20;23.70
10300;DHT22;5195;48.562;9.192;2023-07-09T11:17:28;39.00;24.00
10300;DHT22;5195;48.562;9.192;2023-07-09T11:19:55;39.00;23.90
10300;DHT22;5195;48.562;9.192;2023-07-09T11:22:20;38.90;24.10
10300;DHT22;5195;48.562;9.192;2023-07-09T11:24:50;38.70;24.30
10300;DHT22;5195;48.562;9.192;2023-07-09T11:27:22;38.80;24.60
10300;DHT22;5195;48.562;9.192;2023-07-09T11:30:15;39.10;23.80
10300;DHT22;5195;48.562;9.192;2023-07-09T11:32:29;39.10;23.40
10300;DHT22;5195;48.562;9.192;2023-07-09T11:34:54;39.00;23.40
10300;DHT22;5195;48.562;9.192;2023-07-09T11:37:22;39.10;23.80
10300;DHT22;5195;48.562;9.192;2023-07-09T11:39:47;39.10;23.70
10300;DHT22;5195;48.562;9.192;2023-07-09T11:42:30;39.10;23.40
10300;DHT22;5195;48.562;9.192;2023-07-09T11:45:08;39.20;22.90
10300;DHT22;5195;48.562;9.192;2023-07-09T11:47:37;39.10;22.90
10300;DHT22;5195;48.562;9.192;2023-07-09T11:50:05;38.80;23.20
10300;DHT22;5195;48.562;9.192;2023-07-09T11:54:57;38.70;23.40
10300;DHT22;5195;48.562;9.192;2023-07-09T11:57:23;38.70;23.40
10300;DHT22;5195;48.562;9.192;2023-07-09T11:59:49;38.00;24.00
10300;DHT22;5195;48.562;9.192;2023-07-09T12:02:16;38.00;24.00
10300;DHT22;5195;48.562;9.192;2023-07-09T12:04:41;37.60;24.20
10300;DHT22;5195;48.562;9.192;2023-07-09T12:07:09;37.60;24.20
10300;DHT22;5195;48.562;9.192;2023-07-09T12:09:41;37.90;23.60
10300;DHT22;5195;48.562;9.192;2023-07-09T12:11:59;37.90;23.20
10300;DHT22;5195;48.562;9.192;2023-07-09T12:14:24;38.10;22.60
10300;DHT22;5195;48.562;9.192;2023-07-09T12:16:51;38.20;22.80
10300;DHT22;5195;48.562;9.192;2023-07-09T12:19:17;38.40;22.60
10300;DHT22;5195;48.562;9.192;2023-07-09T12:21:46;38.40;22.80
10300;DHT22;5195;48.562;9.192;2023-07-09T12:24:25;38.10;22.50
10300;DHT22;5195;48.562;9.192;2023-07-09T12:26:47;38.10;22.40
10300;DHT22;5195;48.562;9.192;2023-07-09T12:29:12;37.90;22.30
10300;DHT22;5195;48.562;9.192;2023-07-09T12:31:39;38.10;22.50
10300;DHT22;5195;48.562;9.192;2023-07-09T12:34:04;38.10;21.90
10300;DHT22;5195;48.562;9.192;2023-07-09T12:36:30;38.00;22.00
10300;DHT22;5195;48.562;9.192;2023-07-09T12:38:56;38.20;21.30
10300;DHT22;5195;48.562;9.192;2023-07-09T12:41:32;38.20;21.70
10300;DHT22;5195;48.562;9.192;2023-07-09T12:43:50;38.20;21.90
10300;DHT22;5195;48.562;9.192;2023-07-09T12:46:16;38.40;22.40
10300;DHT22;5195;48.562;9.192;2023-07-09T12:48:41;38.40;22.00
10300;DHT22;5195;48.562;9.192;2023-07-09T12:51:08;38.50;21.80
10300;DHT22;5195;48.562;9.192;2023-07-09T12:53:32;38.60;21.20
10300;DHT22;5195;48.562;9.192;2023-07-09T12:55:58;38.60;21.00
10300;DHT22;5195;48.562;9.192;2023-07-09T12:58:36;38.70;21.20
10300;DHT22;5195;48.562;9.192;2023-07-09T13:00:52;38.90;21.20
10300;DHT22;5195;48.562;9.192;2023-07-09T13:03:14;38.70;21.50
10300;DHT22;5195;48.562;9.192;2023-07-09T13:05:50;38.50;21.40
10300;DHT22;5195;48.562;9.192;2023-07-09T13:08:11;38.20;21.80
10300;DHT22;5195;48.562;9.192;2023-07-09T13:10:38;38.20;21.80
10300;DHT22;5195;48.562;9.192;2023-07-09T13:13:02;38.10;22.20
10300;DHT22;5195;48.562;9.192;2023-07-09T13:18:05;37.80;21.90
10300;DHT22;5195;48.562;9.192;2023-07-09T13:20:27;37.60;21.90
10300;DHT22;5195;48.562;9.192;2023-07-09T13:22:53;37.60;21.70
10300;DHT22;5195;48.562;9.192;2023-07-09T13:25:18;37.40;22.00
10300;DHT22;5195;48.562;9.192;2023-07-09T13:27:45;37.50;22.10
10300;DHT22;5195;48.562;9.192;2023-07-09T13:30:11;37.40;22.60
10300;DHT22;5195;48.562;9.192;2023-07-09T13:32:38;37.60;22.00
10300;DHT22;5195;48.562;9.192;2023-07-09T13:35:08;37.50;21.90
10300;DHT22;5195;48.562;9.192;2023-07-09T13:37:31;37.70;21.70
10300;DHT22;5195;48.562;9.192;2023-07-09T13:39:57;37.70;21.70
10300;DHT22;5195;48.562;9.192;2023-07-09T13:42:23;37.60;21.80
10300;DHT22;5195;48.562;9.192;2023-07-09T13:44:49;37.60;21.30
10300;DHT22;5195;48.562;9.192;2023-07-09T13:47:16;37.90;20.70
10300;DHT22;5195;48.562;9.192;2023-07-09T13:49:41;37.80;20.60
10300;DHT22;5195;48.562;9.192;2023-07-09T13:52:08;37.70;21.60
10300;DHT22;5195;48.562;9.192;2023-07-09T13:54:33;37.70;21.60
10300;DHT22;5195;48.562;9.192;2023-07-09T13:56:59;37.50;21.50
10300;DHT22;5195;48.562;9.192;2023-07-09T13:59:26;37.30;21.60
10300;DHT22;5195;48.562;9.192;2023-07-09T14:01:52;37.60;22.00
10300;DHT22;5195;48.562;9.192;2023-07-09T14:04:18;37.60;22.00
10300;DHT22;5195;48.562;9.192;2023-07-09T14:06:51;37.50;21.80
10300;DHT22;5195;48.562;9.192;2023-07-09T14:09:17;37.70;20.90
10300;DHT22;5195;48.562;9.192;2023-07-09T14:11:51;37.60;21.10
10300;DHT22;5195;48.562;9.192;2023-07-09T14:14:18;37.50;21.10
10300;DHT22;5195;48.562;9.192;2023-07-09T14:16:42;37.40;21.60
10300;DHT22;5195;48.562;9.192;2023-07-09T14:19:13;37.30;21.90
10300;DHT22;5195;48.562;9.192;2023-07-09T14:21:34;37.20;22.00
10300;DHT22;5195;48.562;9.192;2023-07-09T14:24:00;37.50;21.40
10300;DHT22;5195;48.562;9.192;2023-07-09T14:26:25;37.90;21.40
10300;DHT22;5195;48.562;9.192;2023-07-09T14:28:52;37.90;20.90
10300;DHT22;5195;48.562;9.192;2023-07-09T14:31:28;37.90;20.90
10300;DHT22;5195;48.562;9.192;2023-07-09T14:33:43;37.90;21.50
10300;DHT22;5195;48.562;9.192;2023-07-09T14:36:08;37.70;21.80
10300;DHT22;5195;48.562;9.192;2023-07-09T14:38:34;37.50;21.80
10300;DHT22;5195;48.562;9.192;2023-07-09T14:41:00;37.40;21.70
10300;DHT22;5195;48.562;9.192;2023-07-09T14:43:26;37.60;21.80
10300;DHT22;5195;48.562;9.192;2023-07-09T14:45:51;37.60;21.80
10300;DHT22;5195;48.562;9.192;2023-07-09T14:48:18;38.10;21.60
10300;DHT22;5195;48.562;9.192;2023-07-09T14:50:44;38.10;21.10
10300;DHT22;5195;48.562;9.192;2023-07-09T14:53:26;38.40;20.90
10300;DHT22;5195;48.562;9.192;2023-07-09T14:55:52;38.20;20.90
10300;DHT22;5195;48.562;9.192;2023-07-09T14:58:17;38.30;20.70
10300;DHT22;5195;48.562;9.192;2023-07-09T15:00:42;38.20;21.10
10300;DHT22;5195;48.562;9.192;2023-07-09T15:03:08;38.20;19.70
10300;DHT22;5195;48.562;9.192;2023-07-09T15:05:34;38.30;20.20
10300;DHT22;5195;48.562;9.192;2023-07-09T15:08:00;38.50;20.40
10300;DHT22;5195;48.562;9.192;2023-07-09T15:10:26;38.40;20.40
10300;DHT22;5195;48.562;9.192;2023-07-09T15:12:51;38.30;20.00
10300;DHT22;5195;48.562;9.192;2023-07-09T15:15:20;38.20;19.90
10300;DHT22;5195;48.562;9.192;2023-07-09T15:17:43;38.20;19.90
10300;DHT22;5195;48.562;9.192;2023-07-09T15:20:20;38.00;20.30
10300;DHT22;5195;48.562;9.192;2023-07-09T15:22:45;37.70;20.60
10300;DHT22;5195;48.562;9.192;2023-07-09T15:25:15;38.00;19.60
10300;DHT22;5195;48.562;9.192;2023-07-09T15:27:41;37.90;19.50
10300;DHT22;5195;48.562;9.192;2023-07-09T15:30:21;37.80;19.50
10300;DHT22;5195;48.562;9.192;2023-07-09T15:32:45;37.80;19.80
10300;DHT22;5195;48.562;9.192;2023-07-09T15:35:11;37.70;20.10
10300;DHT22;5195;48.562;9.192;2023-07-09T15:37:36;37.80;20.50
10300;DHT22;5195;48.562;9.192;2023-07-09T15:40:03;37.90;20.70
10300;DHT22;5195;48.562;9.192;2023-07-09T15:42:29;38.00;20.90
10300;DHT22;5195;48.562;9.192;2023-07-09T15:44:55;37.60;21.20
10300;DHT22;5195;48.562;9.192;2023-07-09T15:47:21;37.60;21.20
10300;DHT22;5195;48.562;9.192;2023-07-09T15:49:46;37.30;21.40
10300;DHT22;5195;48.562;9.192;2023-07-09T15:52:12;37.40;21.60
10300;DHT22;5195;48.562;9.192;2023-07-09T15:54:37;37.60;20.40
10300;DHT22;5195;48.562;9.192;2023-07-09T15:57:03;37.80;21.10
10300;DHT22;5195;48.562;9.192;2023-07-09T15:59:35;37.90;20.40
10300;DHT22;5195;48.562;9.192;2023-07-09T16:02:09;38.10;21.00
10300;DHT22;5195;48.562;9.192;2023-07-09T16:04:29;37.80;21.10
10300;DHT22;5195;48.562;9.192;2023-07-09T16:06:54;37.80;21.00
10300;DHT22;5195;48.562;9.192;2023-07-09T16:09:21;37.50;21.60
10300;DHT22;5195;48.562;9.192;2023-07-09T16:11:47;37.50;21.60